sensor_id;sensor_type;location;lat;lon;timestamp;P1;durP1;ratioP1;P2;durP2;ratioP2
7076;SDS011;3579;48.956;9.154;2022-07-06T00:00:34;1.80;;;1.50;;
7076;SDS011;3579;48.956;9.154;2022-07-06T00:03:00;1.67;;;1.57;;
7076;SDS011;3579;48.956;9.154;2022-07-06T00:05:26;1.87;;;1.40;;
7076;SDS011;3579;48.956;9.154;2022-07-06T00:07:52;2.13;;;1.40;;
7076;SDS011;3579;48.956;9.154;2022-07-06T00:10:18;2.40;;;1.40;;
7076;SDS011;3579;48.956;9.154;2022-07-06T00:12:44;1.67;;;1.50;;
7076;SDS011;3579;48.956;9.154;2022-07-06T00:15:10;1.53;;;1.33;;
7076;SDS011;3579;48.956;9.154;2022-07-06T00:17:36;1.43;;;1.33;;
7076;SDS011;3579;48.956;9.154;2022-07-06T00:20:02;1.40;;;1.30;;
7076;SDS011;3579;48.956;9.154;2022-07-06T00:22:28;1.43;;;1.30;;
7076;SDS011;3579;48.956;9.154;2022-07-06T00:24:54;1.43;;;1.33;;
7076;SDS011;3579;48.956;9.154;2022-07-06T00:27:20;1.50;;;1.40;;
7076;SDS011;3579;48.956;9.154;2022-07-06T00:29:45;2.07;;;1.50;;
7076;SDS011;3579;48.956;9.154;2022-07-06T00:32:11;1.60;;;1.40;;
7076;SDS011;3579;48.956;9.154;2022-07-06T00:34:38;1.40;;;1.30;;
7076;SDS011;3579;48.956;9.154;2022-07-06T00:37:07;1.87;;;1.57;;
7076;SDS011;3579;48.956;9.154;2022-07-06T00:39:33;1.57;;;1.30;;
7076;SDS011;3579;48.956;9.154;2022-07-06T00:41:59;1.73;;;1.40;;
7076;SDS011;3579;48.956;9.154;2022-07-06T00:44:25;1.30;;;1.20;;
7076;SDS011;3579;48.956;9.154;2022-07-06T00:46:51;2.00;;;1.40;;
7076;SDS011;3579;48.956;9.154;2022-07-06T00:49:17;1.80;;;1.40;;
7076;SDS011;3579;48.956;9.154;2022-07-06T00:52:02;1.93;;;1.40;;
7076;SDS011;3579;48.956;9.154;2022-07-06T00:54:29;1.50;;;1.40;;
7076;SDS011;3579;48.956;9.154;2022-07-06T00:56:57;1.60;;;1.50;;
7076;SDS011;3579;48.956;9.154;2022-07-06T00:59:24;1.67;;;1.30;;
7076;SDS011;3579;48.956;9.154;2022-07-06T01:01:51;2.03;;;1.40;;
7076;SDS011;3579;48.956;9.154;2022-07-06T01:04:18;2.00;;;1.50;;
7076;SDS011;3579;48.956;9.154;2022-07-06T01:06:44;1.70;;;1.53;;
7076;SDS011;3579;48.956;9.154;2022-07-06T01:09:12;1.53;;;1.30;;
7076;SDS011;3579;48.956;9.154;2022-07-06T01:11:38;2.20;;;1.50;;
7076;SDS011;3579;48.956;9.154;2022-07-06T01:14:04;1.90;;;1.50;;
7076;SDS011;3579;48.956;9.154;2022-07-06T01:16:31;1.70;;;1.30;;
7076;SDS011;3579;48.956;9.154;2022-07-06T01:18:57;1.73;;;1.37;;
7076;SDS011;3579;48.956;9.154;2022-07-06T01:21:23;1.63;;;1.43;;
7076;SDS011;3579;48.956;9.154;2022-07-06T01:23:49;1.60;;;1.40;;
7076;SDS011;3579;48.956;9.154;2022-07-06T01:26:18;1.90;;;1.50;;
7076;SDS011;3579;48.956;9.154;2022-07-06T01:28:46;1.60;;;1.30;;
7076;SDS011;3579;48.956;9.154;2022-07-06T01:31:21;1.60;;;1.40;;
7076;SDS011;3579;48.956;9.154;2022-07-06T01:33:50;1.60;;;1.33;;
7076;SDS011;3579;48.956;9.154;2022-07-06T01:36:18;1.50;;;1.40;;
7076;SDS011;3579;48.956;9.154;2022-07-06T01:38:45;1.70;;;1.20;;
7076;SDS011;3579;48.956;9.154;2022-07-06T01:41:15;1.60;;;1.30;;
7076;SDS011;3579;48.956;9.154;2022-07-06T01:43:42;1.50;;;1.20;;
7076;SDS011;3579;48.956;9.154;2022-07-06T01:46:08;1.50;;;1.33;;
7076;SDS011;3579;48.956;9.154;2022-07-06T01:48:34;3.07;;;1.50;;
7076;SDS011;3579;48.956;9.154;2022-07-06T01:51:00;1.83;;;1.43;;
7076;SDS011;3579;48.956;9.154;2022-07-06T01:53:26;1.70;;;1.40;;
7076;SDS011;3579;48.956;9.154;2022-07-06T01:55:52;2.47;;;1.30;;
7076;SDS011;3579;48.956;9.154;2022-07-06T01:58:18;1.97;;;1.30;;
7076;SDS011;3579;48.956;9.154;2022-07-06T02:00:44;2.03;;;1.40;;
7076;SDS011;3579;48.956;9.154;2022-07-06T02:03:10;1.60;;;1.50;;
7076;SDS011;3579;48.956;9.154;2022-07-06T02:05:36;1.60;;;1.47;;
7076;SDS011;3579;48.956;9.154;2022-07-06T02:08:02;1.50;;;1.40;;
7076;SDS011;3579;48.956;9.154;2022-07-06T02:10:28;1.40;;;1.30;;
7076;SDS011;3579;48.956;9.154;2022-07-06T02:12:54;2.07;;;1.53;;
7076;SDS011;3579;48.956;9.154;2022-07-06T02:15:20;1.97;;;1.40;;
7076;SDS011;3579;48.956;9.154;2022-07-06T02:17:46;1.83;;;1.63;;
7076;SDS011;3579;48.956;9.154;2022-07-06T02:20:12;1.50;;;1.40;;
7076;SDS011;3579;48.956;9.154;2022-07-06T02:22:38;2.60;;;1.30;;
7076;SDS011;3579;48.956;9.154;2022-07-06T02:25:04;2.00;;;1.60;;
7076;SDS011;3579;48.956;9.154;2022-07-06T02:27:30;1.70;;;1.60;;
7076;SDS011;3579;48.956;9.154;2022-07-06T02:29:56;1.40;;;1.30;;
7076;SDS011;3579;48.956;9.154;2022-07-06T02:32:22;1.63;;;1.50;;
7076;SDS011;3579;48.956;9.154;2022-07-06T02:34:48;2.03;;;1.70;;
7076;SDS011;3579;48.956;9.154;2022-07-06T02:37:15;2.07;;;1.40;;
7076;SDS011;3579;48.956;9.154;2022-07-06T02:39:41;1.70;;;1.60;;
7076;SDS011;3579;48.956;9.154;2022-07-06T02:42:07;1.77;;;1.60;;
7076;SDS011;3579;48.956;9.154;2022-07-06T02:44:33;1.83;;;1.60;;
7076;SDS011;3579;48.956;9.154;2022-07-06T02:46:59;1.40;;;1.30;;
7076;SDS011;3579;48.956;9.154;2022-07-06T02:49:25;1.60;;;1.50;;
7076;SDS011;3579;48.956;9.154;2022-07-06T02:51:51;1.77;;;1.60;;
7076;SDS011;3579;48.956;9.154;2022-07-06T02:54:17;1.90;;;1.40;;
7076;SDS011;3579;48.956;9.154;2022-07-06T02:56:43;2.90;;;1.60;;
7076;SDS011;3579;48.956;9.154;2022-07-06T02:59:10;2.07;;;1.60;;
7076;SDS011;3579;48.956;9.154;2022-07-06T03:01:36;2.43;;;1.70;;
7076;SDS011;3579;48.956;9.154;2022-07-06T03:04:02;2.10;;;1.90;;
7076;SDS011;3579;48.956;9.154;2022-07-06T03:06:28;1.77;;;1.40;;
7076;SDS011;3579;48.956;9.154;2022-07-06T03:08:54;1.80;;;1.50;;
7076;SDS011;3579;48.956;9.154;2022-07-06T03:11:20;1.50;;;1.40;;
7076;SDS011;3579;48.956;9.154;2022-07-06T03:13:46;1.80;;;1.50;;
7076;SDS011;3579;48.956;9.154;2022-07-06T03:16:12;2.03;;;1.60;;
7076;SDS011;3579;48.956;9.154;2022-07-06T03:18:38;1.80;;;1.57;;
7076;SDS011;3579;48.956;9.154;2022-07-06T03:21:04;1.73;;;1.50;;
7076;SDS011;3579;48.956;9.154;2022-07-06T03:23:30;1.53;;;1.37;;
7076;SDS011;3579;48.956;9.154;2022-07-06T03:25:56;3.20;;;1.50;;
7076;SDS011;3579;48.956;9.154;2022-07-06T03:28:23;1.63;;;1.50;;
7076;SDS011;3579;48.956;9.154;2022-07-06T03:30:49;1.70;;;1.40;;
7076;SDS011;3579;48.956;9.154;2022-07-06T03:33:15;1.90;;;1.70;;
7076;SDS011;3579;48.956;9.154;2022-07-06T03:35:41;1.90;;;1.70;;
7076;SDS011;3579;48.956;9.154;2022-07-06T03:38:07;2.20;;;1.40;;
7076;SDS011;3579;48.956;9.154;2022-07-06T03:40:33;2.20;;;1.60;;
7076;SDS011;3579;48.956;9.154;2022-07-06T03:42:59;1.63;;;1.40;;
7076;SDS011;3579;48.956;9.154;2022-07-06T03:45:25;1.83;;;1.50;;
7076;SDS011;3579;48.956;9.154;2022-07-06T03:47:51;2.10;;;1.70;;
7076;SDS011;3579;48.956;9.154;2022-07-06T03:50:17;2.00;;;1.60;;
7076;SDS011;3579;48.956;9.154;2022-07-06T03:52:43;2.03;;;1.60;;
7076;SDS011;3579;48.956;9.154;2022-07-06T03:55:10;1.90;;;1.63;;
7076;SDS011;3579;48.956;9.154;2022-07-06T03:57:39;1.40;;;1.30;;
7076;SDS011;3579;48.956;9.154;2022-07-06T04:00:06;1.90;;;1.67;;
7076;SDS011;3579;48.956;9.154;2022-07-06T04:02:33;2.33;;;1.50;;
7076;SDS011;3579;48.956;9.154;2022-07-06T04:05:00;1.43;;;1.30;;
7076;SDS011;3579;48.956;9.154;2022-07-06T04:07:26;2.17;;;1.57;;
7076;SDS011;3579;48.956;9.154;2022-07-06T04:09:52;2.10;;;1.70;;
7076;SDS011;3579;48.956;9.154;2022-07-06T04:12:18;1.97;;;1.70;;
7076;SDS011;3579;48.956;9.154;2022-07-06T04:14:44;1.60;;;1.50;;
7076;SDS011;3579;48.956;9.154;2022-07-06T04:17:10;1.43;;;1.33;;
7076;SDS011;3579;48.956;9.154;2022-07-06T04:19:55;1.70;;;1.50;;
7076;SDS011;3579;48.956;9.154;2022-07-06T04:22:21;1.80;;;1.50;;
7076;SDS011;3579;48.956;9.154;2022-07-06T04:24:47;2.00;;;1.60;;
7076;SDS011;3579;48.956;9.154;2022-07-06T04:27:13;1.93;;;1.70;;
7076;SDS011;3579;48.956;9.154;2022-07-06T04:29:39;1.83;;;1.70;;
7076;SDS011;3579;48.956;9.154;2022-07-06T04:32:05;1.63;;;1.53;;
7076;SDS011;3579;48.956;9.154;2022-07-06T04:34:31;2.20;;;1.70;;
7076;SDS011;3579;48.956;9.154;2022-07-06T04:36:57;2.80;;;1.60;;
7076;SDS011;3579;48.956;9.154;2022-07-06T04:39:23;2.33;;;1.67;;
7076;SDS011;3579;48.956;9.154;2022-07-06T04:41:49;1.87;;;1.60;;
7076;SDS011;3579;48.956;9.154;2022-07-06T04:44:15;1.97;;;1.60;;
7076;SDS011;3579;48.956;9.154;2022-07-06T04:46:41;2.20;;;1.60;;
7076;SDS011;3579;48.956;9.154;2022-07-06T04:49:07;1.40;;;1.30;;
7076;SDS011;3579;48.956;9.154;2022-07-06T04:51:33;2.03;;;1.70;;
7076;SDS011;3579;48.956;9.154;2022-07-06T04:53:59;3.10;;;1.40;;
7076;SDS011;3579;48.956;9.154;2022-07-06T04:56:25;1.73;;;1.57;;
7076;SDS011;3579;48.956;9.154;2022-07-06T04:58:51;1.97;;;1.60;;
7076;SDS011;3579;48.956;9.154;2022-07-06T05:01:17;1.97;;;1.57;;
7076;SDS011;3579;48.956;9.154;2022-07-06T05:03:43;2.00;;;1.67;;
7076;SDS011;3579;48.956;9.154;2022-07-06T05:06:09;2.63;;;1.60;;
7076;SDS011;3579;48.956;9.154;2022-07-06T05:08:35;3.67;;;1.77;;
7076;SDS011;3579;48.956;9.154;2022-07-06T05:11:02;2.00;;;1.47;;
7076;SDS011;3579;48.956;9.154;2022-07-06T05:13:28;3.20;;;1.80;;
7076;SDS011;3579;48.956;9.154;2022-07-06T05:15:54;6.40;;;2.07;;
7076;SDS011;3579;48.956;9.154;2022-07-06T05:18:20;2.73;;;1.80;;
7076;SDS011;3579;48.956;9.154;2022-07-06T05:20:46;3.23;;;2.17;;
7076;SDS011;3579;48.956;9.154;2022-07-06T05:23:12;4.20;;;2.00;;
7076;SDS011;3579;48.956;9.154;2022-07-06T05:25:39;9.53;;;2.27;;
7076;SDS011;3579;48.956;9.154;2022-07-06T05:28:05;4.80;;;2.10;;
7076;SDS011;3579;48.956;9.154;2022-07-06T05:30:31;5.67;;;2.50;;
7076;SDS011;3579;48.956;9.154;2022-07-06T05:32:56;4.37;;;2.00;;
7076;SDS011;3579;48.956;9.154;2022-07-06T05:35:23;4.53;;;2.10;;
7076;SDS011;3579;48.956;9.154;2022-07-06T05:37:49;5.67;;;2.47;;
7076;SDS011;3579;48.956;9.154;2022-07-06T05:40:15;6.97;;;2.47;;
7076;SDS011;3579;48.956;9.154;2022-07-06T05:42:41;3.67;;;2.10;;
7076;SDS011;3579;48.956;9.154;2022-07-06T05:45:07;4.07;;;2.27;;
7076;SDS011;3579;48.956;9.154;2022-07-06T05:47:35;3.63;;;2.23;;
7076;SDS011;3579;48.956;9.154;2022-07-06T05:50:33;5.90;;;2.10;;
7076;SDS011;3579;48.956;9.154;2022-07-06T05:53:00;4.83;;;2.10;;
7076;SDS011;3579;48.956;9.154;2022-07-06T05:55:27;4.33;;;2.10;;
7076;SDS011;3579;48.956;9.154;2022-07-06T05:57:54;4.47;;;2.30;;
7076;SDS011;3579;48.956;9.154;2022-07-06T06:00:24;4.40;;;2.37;;
7076;SDS011;3579;48.956;9.154;2022-07-06T06:02:51;4.93;;;2.47;;
7076;SDS011;3579;48.956;9.154;2022-07-06T06:05:17;4.07;;;2.27;;
7076;SDS011;3579;48.956;9.154;2022-07-06T06:07:44;6.57;;;2.50;;
7076;SDS011;3579;48.956;9.154;2022-07-06T06:10:17;3.53;;;2.27;;
7076;SDS011;3579;48.956;9.154;2022-07-06T06:12:44;5.50;;;2.60;;
7076;SDS011;3579;48.956;9.154;2022-07-06T06:15:10;2.30;;;2.07;;
7076;SDS011;3579;48.956;9.154;2022-07-06T06:17:37;5.63;;;2.63;;
7076;SDS011;3579;48.956;9.154;2022-07-06T06:20:04;4.63;;;2.50;;
7076;SDS011;3579;48.956;9.154;2022-07-06T06:22:52;5.23;;;2.17;;
7076;SDS011;3579;48.956;9.154;2022-07-06T06:25:21;6.17;;;2.30;;
7076;SDS011;3579;48.956;9.154;2022-07-06T06:27:53;4.63;;;2.10;;
7076;SDS011;3579;48.956;9.154;2022-07-06T06:30:19;5.37;;;2.20;;
7076;SDS011;3579;48.956;9.154;2022-07-06T06:32:45;7.27;;;2.50;;
7076;SDS011;3579;48.956;9.154;2022-07-06T06:35:11;4.57;;;2.30;;
7076;SDS011;3579;48.956;9.154;2022-07-06T06:37:38;4.13;;;2.27;;
7076;SDS011;3579;48.956;9.154;2022-07-06T06:40:05;6.13;;;2.10;;
7076;SDS011;3579;48.956;9.154;2022-07-06T06:42:32;6.03;;;2.23;;
7076;SDS011;3579;48.956;9.154;2022-07-06T06:45:00;6.43;;;2.37;;
7076;SDS011;3579;48.956;9.154;2022-07-06T06:47:26;4.67;;;2.30;;
7076;SDS011;3579;48.956;9.154;2022-07-06T06:49:53;7.27;;;2.97;;
7076;SDS011;3579;48.956;9.154;2022-07-06T06:52:19;4.17;;;2.60;;
7076;SDS011;3579;48.956;9.154;2022-07-06T06:54:45;3.73;;;2.03;;
7076;SDS011;3579;48.956;9.154;2022-07-06T06:57:11;5.50;;;2.10;;
7076;SDS011;3579;48.956;9.154;2022-07-06T06:59:39;4.97;;;2.60;;
7076;SDS011;3579;48.956;9.154;2022-07-06T07:02:05;7.73;;;2.50;;
7076;SDS011;3579;48.956;9.154;2022-07-06T07:04:31;7.03;;;2.30;;
7076;SDS011;3579;48.956;9.154;2022-07-06T07:06:57;7.87;;;2.30;;
7076;SDS011;3579;48.956;9.154;2022-07-06T07:09:24;3.00;;;2.40;;
7076;SDS011;3579;48.956;9.154;2022-07-06T07:11:50;6.57;;;2.40;;
7076;SDS011;3579;48.956;9.154;2022-07-06T07:14:16;4.53;;;2.20;;
7076;SDS011;3579;48.956;9.154;2022-07-06T07:16:42;5.50;;;2.10;;
7076;SDS011;3579;48.956;9.154;2022-07-06T07:19:08;5.70;;;2.50;;
7076;SDS011;3579;48.956;9.154;2022-07-06T07:21:34;6.07;;;2.13;;
7076;SDS011;3579;48.956;9.154;2022-07-06T07:24:00;3.93;;;1.90;;
7076;SDS011;3579;48.956;9.154;2022-07-06T07:26:26;7.40;;;2.60;;
7076;SDS011;3579;48.956;9.154;2022-07-06T07:28:53;3.43;;;2.17;;
7076;SDS011;3579;48.956;9.154;2022-07-06T07:31:22;4.63;;;2.40;;
7076;SDS011;3579;48.956;9.154;2022-07-06T07:33:48;4.03;;;1.90;;
7076;SDS011;3579;48.956;9.154;2022-07-06T07:36:14;4.87;;;2.10;;
7076;SDS011;3579;48.956;9.154;2022-07-06T07:38:40;4.53;;;1.63;;
7076;SDS011;3579;48.956;9.154;2022-07-06T07:41:06;6.43;;;2.40;;
7076;SDS011;3579;48.956;9.154;2022-07-06T07:43:33;4.27;;;1.97;;
7076;SDS011;3579;48.956;9.154;2022-07-06T07:45:58;3.73;;;2.07;;
7076;SDS011;3579;48.956;9.154;2022-07-06T07:48:25;6.33;;;2.20;;
7076;SDS011;3579;48.956;9.154;2022-07-06T07:50:51;3.30;;;1.83;;
7076;SDS011;3579;48.956;9.154;2022-07-06T07:53:17;7.10;;;2.00;;
7076;SDS011;3579;48.956;9.154;2022-07-06T07:55:44;6.50;;;2.10;;
7076;SDS011;3579;48.956;9.154;2022-07-06T07:58:10;4.60;;;2.10;;
7076;SDS011;3579;48.956;9.154;2022-07-06T08:00:36;4.57;;;2.10;;
7076;SDS011;3579;48.956;9.154;2022-07-06T08:03:03;3.70;;;2.23;;
7076;SDS011;3579;48.956;9.154;2022-07-06T08:05:29;5.83;;;2.20;;
7076;SDS011;3579;48.956;9.154;2022-07-06T08:07:55;3.33;;;2.20;;
7076;SDS011;3579;48.956;9.154;2022-07-06T08:10:22;3.43;;;2.00;;
7076;SDS011;3579;48.956;9.154;2022-07-06T08:12:48;3.73;;;1.97;;
7076;SDS011;3579;48.956;9.154;2022-07-06T08:15:15;4.47;;;1.80;;
7076;SDS011;3579;48.956;9.154;2022-07-06T08:17:41;5.70;;;1.97;;
7076;SDS011;3579;48.956;9.154;2022-07-06T08:20:08;4.33;;;1.80;;
7076;SDS011;3579;48.956;9.154;2022-07-06T08:22:35;5.20;;;2.17;;
7076;SDS011;3579;48.956;9.154;2022-07-06T08:25:02;3.73;;;1.90;;
7076;SDS011;3579;48.956;9.154;2022-07-06T08:27:29;3.23;;;2.00;;
7076;SDS011;3579;48.956;9.154;2022-07-06T08:29:55;3.93;;;2.00;;
7076;SDS011;3579;48.956;9.154;2022-07-06T08:32:21;3.23;;;1.90;;
7076;SDS011;3579;48.956;9.154;2022-07-06T08:34:48;2.47;;;1.93;;
7076;SDS011;3579;48.956;9.154;2022-07-06T08:37:14;7.00;;;2.10;;
7076;SDS011;3579;48.956;9.154;2022-07-06T08:39:40;2.60;;;1.80;;
7076;SDS011;3579;48.956;9.154;2022-07-06T08:42:07;7.57;;;2.07;;
7076;SDS011;3579;48.956;9.154;2022-07-06T08:44:34;4.07;;;2.30;;
7076;SDS011;3579;48.956;9.154;2022-07-06T08:47:02;3.57;;;2.03;;
7076;SDS011;3579;48.956;9.154;2022-07-06T08:49:31;2.47;;;1.97;;
7076;SDS011;3579;48.956;9.154;2022-07-06T08:52:02;8.73;;;2.10;;
7076;SDS011;3579;48.956;9.154;2022-07-06T08:54:29;7.37;;;2.13;;
7076;SDS011;3579;48.956;9.154;2022-07-06T08:56:55;4.77;;;2.03;;
7076;SDS011;3579;48.956;9.154;2022-07-06T08:59:22;4.40;;;2.00;;
7076;SDS011;3579;48.956;9.154;2022-07-06T09:01:49;4.67;;;2.00;;
7076;SDS011;3579;48.956;9.154;2022-07-06T09:04:17;4.63;;;2.10;;
7076;SDS011;3579;48.956;9.154;2022-07-06T09:06:47;6.23;;;2.10;;
7076;SDS011;3579;48.956;9.154;2022-07-06T09:09:16;5.47;;;1.90;;
7076;SDS011;3579;48.956;9.154;2022-07-06T09:11:47;6.77;;;2.10;;
7076;SDS011;3579;48.956;9.154;2022-07-06T09:14:13;6.20;;;2.20;;
7076;SDS011;3579;48.956;9.154;2022-07-06T09:16:40;7.03;;;2.43;;
7076;SDS011;3579;48.956;9.154;2022-07-06T09:19:06;6.13;;;2.10;;
7076;SDS011;3579;48.956;9.154;2022-07-06T09:21:33;3.70;;;1.80;;
7076;SDS011;3579;48.956;9.154;2022-07-06T09:24:06;4.90;;;2.27;;
7076;SDS011;3579;48.956;9.154;2022-07-06T09:26:36;4.17;;;2.30;;
7076;SDS011;3579;48.956;9.154;2022-07-06T09:29:03;4.97;;;2.40;;
7076;SDS011;3579;48.956;9.154;2022-07-06T09:31:30;4.17;;;2.20;;
7076;SDS011;3579;48.956;9.154;2022-07-06T09:34:01;3.70;;;2.10;;
7076;SDS011;3579;48.956;9.154;2022-07-06T09:36:39;5.37;;;2.20;;
7076;SDS011;3579;48.956;9.154;2022-07-06T09:39:26;5.97;;;2.10;;
7076;SDS011;3579;48.956;9.154;2022-07-06T09:41:54;4.97;;;2.00;;
7076;SDS011;3579;48.956;9.154;2022-07-06T09:44:24;5.20;;;2.10;;
7076;SDS011;3579;48.956;9.154;2022-07-06T09:46:58;4.70;;;2.13;;
7076;SDS011;3579;48.956;9.154;2022-07-06T09:49:26;5.00;;;2.00;;
7076;SDS011;3579;48.956;9.154;2022-07-06T09:51:55;5.07;;;2.47;;
7076;SDS011;3579;48.956;9.154;2022-07-06T09:54:26;4.80;;;2.63;;
7076;SDS011;3579;48.956;9.154;2022-07-06T09:56:53;9.30;;;3.17;;
7076;SDS011;3579;48.956;9.154;2022-07-06T09:59:21;7.80;;;2.73;;
7076;SDS011;3579;48.956;9.154;2022-07-06T10:01:53;4.57;;;2.50;;
7076;SDS011;3579;48.956;9.154;2022-07-06T10:04:21;5.83;;;2.43;;
7076;SDS011;3579;48.956;9.154;2022-07-06T10:06:49;7.00;;;2.27;;
7076;SDS011;3579;48.956;9.154;2022-07-06T10:09:16;6.23;;;2.30;;
7076;SDS011;3579;48.956;9.154;2022-07-06T10:11:47;4.53;;;2.00;;
7076;SDS011;3579;48.956;9.154;2022-07-06T10:14:21;5.90;;;2.50;;
7076;SDS011;3579;48.956;9.154;2022-07-06T10:16:53;5.80;;;1.90;;
7076;SDS011;3579;48.956;9.154;2022-07-06T10:19:25;5.30;;;2.43;;
7076;SDS011;3579;48.956;9.154;2022-07-06T10:21:53;7.77;;;2.13;;
7076;SDS011;3579;48.956;9.154;2022-07-06T10:24:20;5.93;;;2.33;;
7076;SDS011;3579;48.956;9.154;2022-07-06T10:26:47;4.57;;;2.20;;
7076;SDS011;3579;48.956;9.154;2022-07-06T10:29:14;5.80;;;2.50;;
7076;SDS011;3579;48.956;9.154;2022-07-06T10:31:45;4.10;;;2.13;;
7076;SDS011;3579;48.956;9.154;2022-07-06T10:34:16;4.70;;;2.20;;
7076;SDS011;3579;48.956;9.154;2022-07-06T10:36:47;3.80;;;2.10;;
7076;SDS011;3579;48.956;9.154;2022-07-06T10:39:16;7.37;;;2.20;;
7076;SDS011;3579;48.956;9.154;2022-07-06T10:46:06;8.03;;;2.13;;
7076;SDS011;3579;48.956;9.154;2022-07-06T10:48:15;9.80;;;2.80;;
7076;SDS011;3579;48.956;9.154;2022-07-06T10:53:17;6.43;;;2.50;;
7076;SDS011;3579;48.956;9.154;2022-07-06T10:55:54;7.20;;;2.50;;
7076;SDS011;3579;48.956;9.154;2022-07-06T11:01:00;7.37;;;2.50;;
7076;SDS011;3579;48.956;9.154;2022-07-06T11:03:30;4.10;;;2.10;;
7076;SDS011;3579;48.956;9.154;2022-07-06T11:06:01;4.40;;;2.40;;
7076;SDS011;3579;48.956;9.154;2022-07-06T11:11:23;6.63;;;2.53;;
7076;SDS011;3579;48.956;9.154;2022-07-06T11:13:54;18.40;;;2.80;;
7076;SDS011;3579;48.956;9.154;2022-07-06T11:16:25;4.93;;;2.20;;
7076;SDS011;3579;48.956;9.154;2022-07-06T11:21:38;9.13;;;2.87;;
7076;SDS011;3579;48.956;9.154;2022-07-06T11:24:08;5.63;;;2.93;;
7076;SDS011;3579;48.956;9.154;2022-07-06T11:26:35;8.03;;;2.83;;
7076;SDS011;3579;48.956;9.154;2022-07-06T11:29:06;4.67;;;2.30;;
7076;SDS011;3579;48.956;9.154;2022-07-06T11:31:34;7.20;;;2.60;;
7076;SDS011;3579;48.956;9.154;2022-07-06T11:34:05;3.67;;;2.17;;
7076;SDS011;3579;48.956;9.154;2022-07-06T11:36:33;5.23;;;2.30;;
7076;SDS011;3579;48.956;9.154;2022-07-06T11:38:59;6.03;;;2.20;;
7076;SDS011;3579;48.956;9.154;2022-07-06T11:41:25;6.43;;;2.30;;
7076;SDS011;3579;48.956;9.154;2022-07-06T11:43:52;5.33;;;2.40;;
7076;SDS011;3579;48.956;9.154;2022-07-06T11:48:47;8.57;;;3.00;;
7076;SDS011;3579;48.956;9.154;2022-07-06T11:51:14;10.00;;;3.20;;
7076;SDS011;3579;48.956;9.154;2022-07-06T11:53:44;7.20;;;2.70;;
7076;SDS011;3579;48.956;9.154;2022-07-06T11:56:12;8.57;;;2.80;;
7076;SDS011;3579;48.956;9.154;2022-07-06T11:58:39;5.87;;;3.30;;
7076;SDS011;3579;48.956;9.154;2022-07-06T12:01:08;4.73;;;2.47;;
7076;SDS011;3579;48.956;9.154;2022-07-06T12:03:35;5.93;;;2.67;;
7076;SDS011;3579;48.956;9.154;2022-07-06T12:06:02;7.70;;;2.67;;
7076;SDS011;3579;48.956;9.154;2022-07-06T12:08:32;8.80;;;2.80;;
7076;SDS011;3579;48.956;9.154;2022-07-06T12:11:05;12.50;;;2.97;;
7076;SDS011;3579;48.956;9.154;2022-07-06T12:13:35;6.83;;;2.70;;
7076;SDS011;3579;48.956;9.154;2022-07-06T12:16:11;6.80;;;2.63;;
7076;SDS011;3579;48.956;9.154;2022-07-06T12:18:38;6.33;;;2.70;;
7076;SDS011;3579;48.956;9.154;2022-07-06T12:21:12;6.47;;;2.67;;
7076;SDS011;3579;48.956;9.154;2022-07-06T12:26:17;9.30;;;2.60;;
7076;SDS011;3579;48.956;9.154;2022-07-06T12:28:45;7.43;;;2.57;;
7076;SDS011;3579;48.956;9.154;2022-07-06T12:31:34;4.37;;;2.73;;
7076;SDS011;3579;48.956;9.154;2022-07-06T12:34:02;4.70;;;2.60;;
7076;SDS011;3579;48.956;9.154;2022-07-06T12:36:29;4.07;;;2.40;;
7076;SDS011;3579;48.956;9.154;2022-07-06T12:38:56;5.00;;;2.53;;
7076;SDS011;3579;48.956;9.154;2022-07-06T12:41:26;7.63;;;2.50;;
7076;SDS011;3579;48.956;9.154;2022-07-06T12:44:00;5.87;;;2.40;;
7076;SDS011;3579;48.956;9.154;2022-07-06T12:49:02;4.43;;;2.53;;
7076;SDS011;3579;48.956;9.154;2022-07-06T12:51:48;4.20;;;1.90;;
7076;SDS011;3579;48.956;9.154;2022-07-06T12:54:15;4.10;;;2.10;;
7076;SDS011;3579;48.956;9.154;2022-07-06T12:59:23;8.30;;;2.27;;
7076;SDS011;3579;48.956;9.154;2022-07-06T13:01:49;9.73;;;2.50;;
7076;SDS011;3579;48.956;9.154;2022-07-06T13:04:21;4.67;;;2.30;;
7076;SDS011;3579;48.956;9.154;2022-07-06T13:06:48;6.20;;;2.07;;
7076;SDS011;3579;48.956;9.154;2022-07-06T13:09:14;7.00;;;2.20;;
7076;SDS011;3579;48.956;9.154;2022-07-06T13:11:42;6.73;;;2.30;;
7076;SDS011;3579;48.956;9.154;2022-07-06T13:14:08;5.80;;;2.07;;
7076;SDS011;3579;48.956;9.154;2022-07-06T13:16:34;7.00;;;2.27;;
7076;SDS011;3579;48.956;9.154;2022-07-06T13:19:01;5.43;;;2.03;;
7076;SDS011;3579;48.956;9.154;2022-07-06T13:21:27;4.20;;;1.97;;
7076;SDS011;3579;48.956;9.154;2022-07-06T13:23:54;4.23;;;2.13;;
7076;SDS011;3579;48.956;9.154;2022-07-06T13:26:20;6.53;;;2.30;;
7076;SDS011;3579;48.956;9.154;2022-07-06T13:28:46;5.53;;;2.43;;
7076;SDS011;3579;48.956;9.154;2022-07-06T13:31:12;5.57;;;2.00;;
7076;SDS011;3579;48.956;9.154;2022-07-06T13:33:38;4.73;;;2.00;;
7076;SDS011;3579;48.956;9.154;2022-07-06T13:36:04;4.90;;;2.03;;
7076;SDS011;3579;48.956;9.154;2022-07-06T13:38:30;3.33;;;2.13;;
7076;SDS011;3579;48.956;9.154;2022-07-06T13:40:56;3.97;;;2.10;;
7076;SDS011;3579;48.956;9.154;2022-07-06T13:43:22;3.97;;;1.90;;
7076;SDS011;3579;48.956;9.154;2022-07-06T13:45:48;4.30;;;2.20;;
7076;SDS011;3579;48.956;9.154;2022-07-06T13:48:14;4.03;;;2.00;;
7076;SDS011;3579;48.956;9.154;2022-07-06T13:50:40;3.33;;;2.10;;
7076;SDS011;3579;48.956;9.154;2022-07-06T13:53:06;4.00;;;2.20;;
7076;SDS011;3579;48.956;9.154;2022-07-06T13:55:32;4.63;;;2.00;;
7076;SDS011;3579;48.956;9.154;2022-07-06T13:57:58;5.53;;;2.20;;
7076;SDS011;3579;48.956;9.154;2022-07-06T14:00:24;3.93;;;1.80;;
7076;SDS011;3579;48.956;9.154;2022-07-06T14:02:51;2.80;;;1.90;;
7076;SDS011;3579;48.956;9.154;2022-07-06T14:05:17;7.40;;;2.10;;
7076;SDS011;3579;48.956;9.154;2022-07-06T14:07:43;4.63;;;2.20;;
7076;SDS011;3579;48.956;9.154;2022-07-06T14:10:09;6.07;;;2.07;;
7076;SDS011;3579;48.956;9.154;2022-07-06T14:12:35;5.30;;;1.87;;
7076;SDS011;3579;48.956;9.154;2022-07-06T14:15:01;4.63;;;1.90;;
7076;SDS011;3579;48.956;9.154;2022-07-06T14:17:27;4.23;;;1.90;;
7076;SDS011;3579;48.956;9.154;2022-07-06T14:19:53;6.63;;;2.80;;
7076;SDS011;3579;48.956;9.154;2022-07-06T14:22:21;8.30;;;2.53;;
7076;SDS011;3579;48.956;9.154;2022-07-06T14:24:47;9.10;;;2.30;;
7076;SDS011;3579;48.956;9.154;2022-07-06T14:27:13;5.50;;;2.30;;
7076;SDS011;3579;48.956;9.154;2022-07-06T14:29:39;3.70;;;1.83;;
7076;SDS011;3579;48.956;9.154;2022-07-06T14:32:05;6.33;;;2.10;;
7076;SDS011;3579;48.956;9.154;2022-07-06T14:34:31;5.77;;;2.10;;
7076;SDS011;3579;48.956;9.154;2022-07-06T14:36:57;5.77;;;2.10;;
7076;SDS011;3579;48.956;9.154;2022-07-06T14:39:23;6.63;;;2.33;;
7076;SDS011;3579;48.956;9.154;2022-07-06T14:41:49;4.37;;;2.20;;
7076;SDS011;3579;48.956;9.154;2022-07-06T14:44:15;5.40;;;2.00;;
7076;SDS011;3579;48.956;9.154;2022-07-06T14:46:41;9.37;;;2.20;;
7076;SDS011;3579;48.956;9.154;2022-07-06T14:49:07;3.63;;;1.93;;
7076;SDS011;3579;48.956;9.154;2022-07-06T14:51:32;3.00;;;1.60;;
7076;SDS011;3579;48.956;9.154;2022-07-06T14:53:58;3.40;;;1.93;;
7076;SDS011;3579;48.956;9.154;2022-07-06T14:56:24;6.73;;;2.07;;
7076;SDS011;3579;48.956;9.154;2022-07-06T14:58:50;3.30;;;1.90;;
7076;SDS011;3579;48.956;9.154;2022-07-06T15:01:16;2.03;;;1.63;;
7076;SDS011;3579;48.956;9.154;2022-07-06T15:03:42;4.00;;;2.00;;
7076;SDS011;3579;48.956;9.154;2022-07-06T15:06:08;2.53;;;1.67;;
7076;SDS011;3579;48.956;9.154;2022-07-06T15:08:34;2.93;;;1.87;;
7076;SDS011;3579;48.956;9.154;2022-07-06T15:11:00;4.00;;;1.83;;
7076;SDS011;3579;48.956;9.154;2022-07-06T15:13:26;2.97;;;1.97;;
7076;SDS011;3579;48.956;9.154;2022-07-06T15:15:52;3.13;;;1.97;;
7076;SDS011;3579;48.956;9.154;2022-07-06T15:18:19;2.83;;;1.70;;
7076;SDS011;3579;48.956;9.154;2022-07-06T15:20:45;2.27;;;1.60;;
7076;SDS011;3579;48.956;9.154;2022-07-06T15:23:13;3.27;;;1.90;;
7076;SDS011;3579;48.956;9.154;2022-07-06T15:25:43;3.90;;;1.80;;
7076;SDS011;3579;48.956;9.154;2022-07-06T15:28:10;2.43;;;1.70;;
7076;SDS011;3579;48.956;9.154;2022-07-06T15:30:38;3.50;;;1.80;;
7076;SDS011;3579;48.956;9.154;2022-07-06T15:33:04;4.00;;;1.80;;
7076;SDS011;3579;48.956;9.154;2022-07-06T15:35:30;2.40;;;1.53;;
7076;SDS011;3579;48.956;9.154;2022-07-06T15:37:56;3.67;;;1.40;;
7076;SDS011;3579;48.956;9.154;2022-07-06T15:40:22;2.43;;;1.80;;